^^

..:: Storico WU ::..



a
amazon.it
Acquistando supporti il sito,
senza costi aggiuntivi per te
Offerte
del giorno

Lo storico viene creato da WUnderground con i dati che la stazione Meteomincio invia al loro server. L' aggiornamento viene fatto ogni 5 minuti circa, tuttavia possono esserci intervalli più ampi a causa di errori, interruzioni di servizio o problemi nell' invio tramite FTP.


Storico stazione MeteoMincio
 
Sommario per Giorno Agosto 31, 2026 Unità:  Metrico    Inglese   Entrambi
Giorno Settimana Mese Anno
  Corrente: Max: Min: Media:
Temperatura: 26.4 °C 26.4 °C 19.4 °C 21.2 °C
Dew Point: 21.6 °C 21.6 °C 18.1 °C 18.9 °C
Umidità: 74.9% 94% 74.9% 87%
Velocità vento: 3.3km/h 5.1km/h 0km/h 1.2km/h
Raffica: 11.3km/h 11.3km/h - -
DirezioneNNW - - SE
Pressione: 1013.5 hPa 1013.5 hPa 1012.6 hPa -
Precipitazioni: 0.0 mm      
 
 
Tabulato dati per Agosto 31, 2026
Ora Temperatura Dew Point Pressione Direzione Velocità vento Raffica Umidità Intensità pioggia (oraria) Info solare Situazione
00:09 22.4 °C 19.3 °C 1013.2 hPa NE 0.1 km/h 1.9 km/h 83% 0.0 mm 0 W/m2
00:14 22.3 °C 19.2 °C 1013.2 hPa Calm   1.6 km/h 82.8% 0.0 mm 0 W/m2
00:19 22.5 °C 19.1 °C 1013.3 hPa NE 0.7 km/h 1.9 km/h 81.2% 0.0 mm 0 W/m2
00:24 22.4 °C 19 °C 1013.3 hPa NE 0.8 km/h 3.7 km/h 81.3% 0.0 mm 0 W/m2
00:29 22.3 °C 19.1 °C 1013.2 hPa Calm   3.2 km/h 82% 0.0 mm 0 W/m2
00:34 22.3 °C 19 °C 1013.2 hPa Calm     82% 0.0 mm 0 W/m2
00:39 22.3 °C 19 °C 1013.3 hPa Calm   1.6 km/h 81.6% 0.0 mm 0 W/m2
00:44 22.3 °C 18.9 °C 1013.3 hPa NE 0.4 km/h 1.9 km/h 81.2% 0.0 mm 0 W/m2
00:49 22.3 °C 19 °C 1013.3 hPa NE 0.1 km/h 1.6 km/h 82% 0.0 mm 0 W/m2
00:54 22.1 °C 18.9 °C 1013.4 hPa NE 0.2 km/h 1.9 km/h 82% 0.0 mm 0 W/m2
00:59 22 °C 18.8 °C 1013.4 hPa NE 0.1 km/h 1.9 km/h 82.1% 0.0 mm 0 W/m2
01:04 21.9 °C 18.9 °C 1013.4 hPa Calm   1.6 km/h 83% 0.0 mm 0 W/m2
01:09 21.8 °C 19 °C 1013.4 hPa NE 0.4 km/h 3.7 km/h 83.9% 0.0 mm 0 W/m2
01:14 21.8 °C 19 °C 1013.4 hPa NE 0.3 km/h 3.2 km/h 84% 0.0 mm 0 W/m2
01:19 21.8 °C 18.8 °C 1013.4 hPa NE 0.5 km/h 3.7 km/h 83% 0.0 mm 0 W/m2
01:24 21.9 °C 18.8 °C 1013.3 hPa NE 2.2 km/h 5.6 km/h 82.5% 0.0 mm 0 W/m2
01:29 21.9 °C 18.7 °C 1013.3 hPa NE 2.9 km/h 5.6 km/h 82% 0.0 mm 0 W/m2
01:34 21.9 °C 18.7 °C 1013.3 hPa NE 1.4 km/h 4.8 km/h 82.1% 0.0 mm 0 W/m2
01:39 21.8 °C 18.8 °C 1013.3 hPa NE 1 km/h 3.7 km/h 83% 0.0 mm 0 W/m2
01:44 21.8 °C 18.8 °C 1013.3 hPa NE 1.7 km/h 3.7 km/h 83% 0.0 mm 0 W/m2
01:49 21.9 °C 18.7 °C 1013.3 hPa NE 0.6 km/h 3.7 km/h 82.1% 0.0 mm 0 W/m2
01:54 21.8 °C 18.6 °C 1013.3 hPa NE 1.6 km/h 4.8 km/h 82.4% 0.0 mm 0 W/m2
01:59 21.7 °C 18.7 °C 1013.3 hPa NE 3.2 km/h 5.6 km/h 83% 0.0 mm 0 W/m2
02:04 21.5 °C 18.6 °C 1013.2 hPa NE 3.3 km/h 5.6 km/h 83.3% 0.0 mm 0 W/m2
02:09 21.5 °C 18.7 °C 1013.2 hPa NE 2.1 km/h 5.6 km/h 84% 0.0 mm 0 W/m2
02:14 21.5 °C 18.7 °C 1013.2 hPa NE 3.3 km/h 5.6 km/h 84% 0.0 mm 0 W/m2
02:19 21.5 °C 18.7 °C 1013.1 hPa NE 1.7 km/h 5.6 km/h 84% 0.0 mm 0 W/m2
02:24 21.4 °C 18.7 °C 1013.1 hPa NE 2.1 km/h 5.6 km/h 84.6% 0.0 mm 0 W/m2
02:29 21.2 °C 18.6 °C 1013.1 hPa NE 3.2 km/h 5.6 km/h 85.2% 0.0 mm 0 W/m2
02:34 21.1 °C 18.7 °C 1013.1 hPa NE 2.1 km/h 5.6 km/h 86% 0.0 mm 0 W/m2
02:39 21.1 °C 18.7 °C 1013.0 hPa NE 2.2 km/h 5.6 km/h 86% 0.0 mm 0 W/m2
02:44 21.1 °C 18.6 °C 1013.0 hPa NE 2.6 km/h 5.6 km/h 86% 0.0 mm 0 W/m2
02:49 21.1 °C 18.7 °C 1013.0 hPa NE 2 km/h 4.8 km/h 86% 0.0 mm 0 W/m2
02:54 21.2 °C 18.6 °C 1013.0 hPa NE 1.1 km/h 3.7 km/h 85.3% 0.0 mm 0 W/m2
02:59 21.2 °C 18.6 °C 1013.0 hPa NE 1 km/h 3.7 km/h 85% 0.0 mm 0 W/m2
03:04 21.1 °C 18.5 °C 1013.0 hPa NE 1.8 km/h 3.7 km/h 85.4% 0.0 mm 0 W/m2
03:09 21.1 °C 18.7 °C 1013.0 hPa NE 0.3 km/h 3.2 km/h 86% 0.0 mm 0 W/m2
03:14 21 °C 18.6 °C 1013.0 hPa NE 0.6 km/h 3.7 km/h 86.3% 0.0 mm 0 W/m2
03:19 21.1 °C 18.8 °C 1013.0 hPa Calm   3.2 km/h 86.7% 0.0 mm 0 W/m2
03:24 21.1 °C 18.6 °C 1013.0 hPa NE 1.9 km/h 5.6 km/h 86.1% 0.0 mm 0 W/m2
03:29 20.9 °C 18.7 °C 1013.0 hPa NE 1.6 km/h 4.8 km/h 87% 0.0 mm 0 W/m2
03:34 20.7 °C 18.5 °C 1013.0 hPa NE 1.4 km/h 5.6 km/h 87.7% 0.0 mm 0 W/m2
03:39 20.4 °C 18.4 °C 1013.0 hPa NE 2.7 km/h 5.6 km/h 88% 0.0 mm 0 W/m2
03:44 20.3 °C 18.4 °C 1013.0 hPa NE 1.1 km/h 4.8 km/h 89% 0.0 mm 0 W/m2
03:49 20.2 °C 18.3 °C 1012.9 hPa NE 2.3 km/h 5.6 km/h 89% 0.0 mm 0 W/m2
03:54 20.1 °C 18.2 °C 1013.0 hPa NE 1.8 km/h 4.8 km/h 89% 0.0 mm 0 W/m2
03:59 20.2 °C 18.5 °C 1013.0 hPa NE 1.7 km/h 5.6 km/h 90% 0.0 mm 0 W/m2
04:04 20.5 °C 18.7 °C 1013.0 hPa NE 0.2 km/h 4.8 km/h 89.4% 0.0 mm 0 W/m2
04:09 20.6 °C 18.7 °C 1013.0 hPa NE 0.7 km/h 3.7 km/h 89% 0.0 mm 0 W/m2
04:14 20.5 °C 18.6 °C 1013.0 hPa NE 1.1 km/h 3.7 km/h 89% 0.0 mm 0 W/m2
04:19 20.3 °C 18.5 °C 1012.9 hPa East 3.6 km/h 8 km/h 89.3% 0.0 mm 0 W/m2
04:24 20.1 °C 18.5 °C 1012.9 hPa East 2.9 km/h 8 km/h 90% 0.0 mm 0 W/m2
04:29 20 °C 18.4 °C 1012.9 hPa East 0.6 km/h 8 km/h 90.3% 0.0 mm 0 W/m2
04:34 19.9 °C 18.4 °C 1012.9 hPa Calm   3.2 km/h 91% 0.0 mm 0 W/m2
04:39 19.8 °C 18.4 °C 1012.9 hPa Calm     91.2% 0.0 mm 0 W/m2
04:44 19.8 °C 18.5 °C 1012.9 hPa Calm     91.9% 0.0 mm 0 W/m2
04:49 19.8 °C 18.5 °C 1012.9 hPa Calm     92% 0.0 mm 0 W/m2
04:54 19.8 °C 18.4 °C 1012.9 hPa Calm     92% 0.0 mm 0 W/m2
04:59 19.7 °C 18.4 °C 1012.8 hPa Calm     92% 0.0 mm 0 W/m2
05:04 19.6 °C 18.5 °C 1012.8 hPa Calm     93% 0.0 mm 0 W/m2
05:09 19.6 °C 18.5 °C 1012.8 hPa Calm     93% 0.0 mm 0 W/m2
05:14 19.7 °C 18.5 °C 1012.8 hPa Calm     93% 0.0 mm 0 W/m2
05:19 19.7 °C 18.5 °C 1012.9 hPa Calm     93% 0.0 mm 0 W/m2
05:24 19.7 °C 18.6 °C 1012.9 hPa Calm     93% 0.0 mm 0 W/m2
05:29 19.7 °C 18.6 °C 1012.8 hPa Calm     93% 0.0 mm 0 W/m2
05:34 19.7 °C 18.6 °C 1012.7 hPa Calm     93% 0.0 mm 0 W/m2
05:39 19.6 °C 18.5 °C 1012.6 hPa Calm     93% 0.0 mm 0 W/m2
05:44 19.6 °C 18.4 °C 1012.6 hPa Calm     93.1% 0.0 mm 0 W/m2
05:49 19.6 °C 18.6 °C 1012.6 hPa Calm     94% 0.0 mm 0 W/m2
05:54 19.7 °C 18.5 °C 1012.6 hPa Calm     93% 0.0 mm 0 W/m2
05:59 19.7 °C 18.6 °C 1012.7 hPa Calm     93% 0.0 mm 0 W/m2
06:04 19.7 °C 18.5 °C 1012.7 hPa Calm     93% 0.0 mm 0 W/m2
06:09 19.6 °C 18.4 °C 1012.7 hPa Calm     93% 0.0 mm 0 W/m2
06:14 19.5 °C 18.3 °C 1012.7 hPa Calm     93% 0.0 mm 0 W/m2
06:19 19.5 °C 18.3 °C 1012.6 hPa Calm     93% 0.0 mm 0 W/m2
06:24 19.4 °C 18.3 °C 1012.6 hPa Calm     93% 0.0 mm 0 W/m2
06:29 19.4 °C 18.3 °C 1012.6 hPa Calm     93% 0.0 mm 0 W/m2
06:34 19.4 °C 18.3 °C 1012.6 hPa Calm     93% 0.0 mm 0 W/m2
06:39 19.5 °C 18.3 °C 1012.6 hPa Calm     93% 0.0 mm 0 W/m2
06:44 19.4 °C 18.3 °C 1012.6 hPa Calm     93% 0.0 mm 0 W/m2
06:49 19.5 °C 18.3 °C 1012.7 hPa Calm     93% 0.0 mm 9 W/m2
06:54 19.5 °C 18.1 °C 1012.8 hPa Calm     92.1% 0.0 mm 12 W/m2
06:59 19.5 °C 18.1 °C 1012.9 hPa Calm     92% 0.0 mm 14 W/m2
07:04 19.6 °C 18.3 °C 1012.9 hPa Calm     92% 0.0 mm 18 W/m2
07:09 19.6 °C 18.2 °C 1013.0 hPa Calm     92% 0.0 mm 19 W/m2
07:14 19.5 °C 18.2 °C 1013.1 hPa Calm     92% 0.0 mm 25 W/m2
07:19 19.6 °C 18.3 °C 1013.0 hPa Calm     92% 0.0 mm 32 W/m2
07:24 19.7 °C 18.3 °C 1013.0 hPa Calm     92% 0.0 mm 35 W/m2
07:29 19.8 °C 18.5 °C 1013.0 hPa Calm     92% 0.0 mm 44 W/m2
07:34 19.9 °C 18.5 °C 1013.0 hPa WNW 0.2 km/h 1.9 km/h 91.6% 0.0 mm 51 W/m2
07:39 19.9 °C 18.4 °C 1013.1 hPa Calm   1.6 km/h 91% 0.0 mm 60 W/m2
07:44 20 °C 18.5 °C 1013.2 hPa WSW 3.5 km/h 5.6 km/h 91% 0.0 mm 69 W/m2
07:49 20.1 °C 18.6 °C 1013.2 hPa SW 3.6 km/h 5.6 km/h 91% 0.0 mm 81 W/m2
07:54 20.4 °C 18.9 °C 1013.2 hPa SW 3 km/h 5.6 km/h 91% 0.0 mm 91 W/m2
07:59 20.8 °C 19.1 °C 1013.2 hPa SW 1.7 km/h 5.6 km/h 90% 0.0 mm 109 W/m2
08:04 21.1 °C 19.3 °C 1013.3 hPa WSW 1.5 km/h 4.8 km/h 89% 0.0 mm 123 W/m2
08:09 21.4 °C 19.4 °C 1013.3 hPa WSW 3.6 km/h 6.4 km/h 88.3% 0.0 mm 135 W/m2
08:14 21.6 °C 19.4 °C 1013.4 hPa WSW 4.2 km/h 6.4 km/h 87.5% 0.0 mm 151 W/m2
08:19 21.7 °C 19.4 °C 1013.3 hPa WSW 2.5 km/h 6.4 km/h 87% 0.0 mm 167 W/m2
08:24 22 °C 19.6 °C 1013.3 hPa WSW 3.8 km/h 6.4 km/h 86.7% 0.0 mm 181 W/m2
08:29 22.2 °C 19.8 °C 1013.3 hPa West 1.2 km/h 6.4 km/h 86% 0.0 mm 195 W/m2
08:34 22.5 °C 19.9 °C 1013.3 hPa West 1.6 km/h 4.8 km/h 85.2% 0.0 mm 206 W/m2
08:39 22.8 °C 20 °C 1013.2 hPa West 0.3 km/h 3.7 km/h 84.6% 0.0 mm 216 W/m2
08:44 23 °C 20.1 °C 1013.3 hPa West 0.1 km/h 3.2 km/h 83.8% 0.0 mm 234 W/m2
08:49 23.2 °C 20.2 °C 1013.3 hPa West 2.8 km/h 5.6 km/h 83.3% 0.0 mm 250 W/m2
08:54 23.4 °C 20.3 °C 1013.3 hPa WSW 3.3 km/h 6.4 km/h 83% 0.0 mm 264 W/m2
08:59 23.5 °C 20.2 °C 1013.3 hPa SW 4.4 km/h 6.4 km/h 82% 0.0 mm 274 W/m2
09:04 23.6 °C 20.4 °C 1013.3 hPa SW 3.2 km/h 6.4 km/h 82% 0.0 mm 292 W/m2
09:09 23.9 °C 20.5 °C 1013.3 hPa SW 3.5 km/h 6.4 km/h 81.4% 0.0 mm 304 W/m2
09:14 24 °C 20.5 °C 1013.3 hPa SW 2.2 km/h 6.4 km/h 80.6% 0.0 mm 318 W/m2
09:19 24.2 °C 20.4 °C 1013.3 hPa SW 1.1 km/h 4.8 km/h 79.3% 0.0 mm 334 W/m2
09:24 24.5 °C 20.6 °C 1013.3 hPa Calm   3.2 km/h 78.9% 0.0 mm 341 W/m2
09:29 24.7 °C 20.7 °C 1013.3 hPa South 1.5 km/h 5.6 km/h 78.2% 0.0 mm 360 W/m2
09:34 24.9 °C 20.7 °C 1013.4 hPa WSW 2.8 km/h 6.4 km/h 77.8% 0.0 mm 371 W/m2
09:39 25.2 °C 20.9 °C 1013.4 hPa West 4.1 km/h 6.4 km/h 77.3% 0.0 mm 376 W/m2
09:44 25.4 °C 21.1 °C 1013.5 hPa WNW 3 km/h 6.4 km/h 77.5% 0.0 mm 396 W/m2
09:49 25.7 °C 21.6 °C 1013.5 hPa WNW 4.2 km/h 8 km/h 78% 0.0 mm 408 W/m2
09:54 26 °C 21.5 °C 1013.5 hPa NW 5.1 km/h 11.3 km/h 76.2% 0.0 mm 420 W/m2
09:59 26.4 °C 21.6 °C 1013.5 hPa NNW 3.3 km/h 11.3 km/h 74.9% 0.0 mm 436 W/m2
Meteomincio, Rivalta sul Mincio, ITA
Con i complimenti di Weather Underground - 2 mb


ebay
Supporta il sito
senza costi aggiuntivi per te
Offerte
del giorno

METEO PILLOLE
Maggior quantità di pioggia caduta in 12 ore
Foc-Foc (2290 m) - Isola di Réunion
Tra il 7 e l'8 gennaio 1966 caddero 1144mm di pioggia.